Montreal (YUL/CYUL)

Information

Location
Montreal, QB, Canada
Local Time
21:41 / 9:41 pm
GMT Time
02:41 / 2:41 am
Gates
Unassigned
No FAA reported delays
METAR CYUL 170200Z 24010KT 15SM BKN100 BKN130 M00/M04 A3020 RMK AC6AC1 SLP231
TAF TAF CYUL 162338Z 1700/1724 24012KT P6SM FEW030 FEW120 FM170600 25005KT P6SM FEW008 BKN025 BECMG 1707/1709 VRB03KT BECMG 1714/1716 05012KT FM171800 06012KT P6SM SCT030 BKN200 FM172200 03012KT P6SM BKN025 OVC100 RMK NXT FCST BY 170300Z
  • No charts available